sensor_id;sensor_type;location;lat;lon;timestamp;temperature;humidity
56044;DHT22;41912;51.022;3.664;2023-06-22T00:00:32;20.50;99.00
56044;DHT22;41912;51.022;3.664;2023-06-22T00:02:58;20.50;99.10
56044;DHT22;41912;51.022;3.664;2023-06-22T00:05:24;20.50;99.00
56044;DHT22;41912;51.022;3.664;2023-06-22T00:07:49;20.60;99.10
56044;DHT22;41912;51.022;3.664;2023-06-22T00:10:15;20.50;99.40
56044;DHT22;41912;51.022;3.664;2023-06-22T00:12:40;20.40;99.60
56044;DHT22;41912;51.022;3.664;2023-06-22T00:15:06;20.40;99.50
56044;DHT22;41912;51.022;3.664;2023-06-22T00:17:32;20.30;99.20
56044;DHT22;41912;51.022;3.664;2023-06-22T00:19:57;20.20;99.40
56044;DHT22;41912;51.022;3.664;2023-06-22T00:22:24;20.10;99.80
56044;DHT22;41912;51.022;3.664;2023-06-22T00:24:54;20.10;99.90
56044;DHT22;41912;51.022;3.664;2023-06-22T00:27:20;20.10;99.90
56044;DHT22;41912;51.022;3.664;2023-06-22T00:29:45;20.00;99.90
56044;DHT22;41912;51.022;3.664;2023-06-22T00:32:11;20.10;99.90
56044;DHT22;41912;51.022;3.664;2023-06-22T00:34:36;20.10;99.90
56044;DHT22;41912;51.022;3.664;2023-06-22T00:37:02;20.00;99.90
56044;DHT22;41912;51.022;3.664;2023-06-22T00:39:28;20.00;99.90
56044;DHT22;41912;51.022;3.664;2023-06-22T00:41:54;20.00;99.90
56044;DHT22;41912;51.022;3.664;2023-06-22T00:44:20;20.00;99.90
56044;DHT22;41912;51.022;3.664;2023-06-22T00:46:45;20.00;99.90
56044;DHT22;41912;51.022;3.664;2023-06-22T00:49:11;20.00;99.90
56044;DHT22;41912;51.022;3.664;2023-06-22T00:51:37;20.00;99.90
56044;DHT22;41912;51.022;3.664;2023-06-22T00:54:04;20.00;99.90
56044;DHT22;41912;51.022;3.664;2023-06-22T00:56:31;20.00;99.90
56044;DHT22;41912;51.022;3.664;2023-06-22T00:58:58;19.90;99.90
56044;DHT22;41912;51.022;3.664;2023-06-22T01:01:25;19.80;99.90
56044;DHT22;41912;51.022;3.664;2023-06-22T01:03:50;19.80;99.90
56044;DHT22;41912;51.022;3.664;2023-06-22T01:06:22;19.80;99.90
56044;DHT22;41912;51.022;3.664;2023-06-22T01:09:00;19.80;99.90
56044;DHT22;41912;51.022;3.664;2023-06-22T01:11:37;19.80;99.90
56044;DHT22;41912;51.022;3.664;2023-06-22T01:14:10;19.80;99.90
56044;DHT22;41912;51.022;3.664;2023-06-22T01:16:40;19.80;99.90
56044;DHT22;41912;51.022;3.664;2023-06-22T01:21:51;19.70;99.90
56044;DHT22;41912;51.022;3.664;2023-06-22T01:24:26;19.70;99.90
56044;DHT22;41912;51.022;3.664;2023-06-22T01:29:24;19.60;99.90
56044;DHT22;41912;51.022;3.664;2023-06-22T01:31:52;19.60;99.90
56044;DHT22;41912;51.022;3.664;2023-06-22T01:34:19;19.60;99.90
56044;DHT22;41912;51.022;3.664;2023-06-22T01:36:45;19.50;99.90
56044;DHT22;41912;51.022;3.664;2023-06-22T01:39:11;19.50;99.90
56044;DHT22;41912;51.022;3.664;2023-06-22T01:41:38;19.50;99.90
56044;DHT22;41912;51.022;3.664;2023-06-22T01:44:08;19.50;99.90
56044;DHT22;41912;51.022;3.664;2023-06-22T01:46:34;19.50;99.90
56044;DHT22;41912;51.022;3.664;2023-06-22T01:49:02;19.40;99.90
56044;DHT22;41912;51.022;3.664;2023-06-22T01:51:28;19.40;99.90
56044;DHT22;41912;51.022;3.664;2023-06-22T01:53:53;19.40;99.90
56044;DHT22;41912;51.022;3.664;2023-06-22T01:56:19;19.30;99.90
56044;DHT22;41912;51.022;3.664;2023-06-22T01:59:39;19.30;99.90
56044;DHT22;41912;51.022;3.664;2023-06-22T02:01:43;19.30;99.90
56044;DHT22;41912;51.022;3.664;2023-06-22T02:04:14;19.30;99.90
56044;DHT22;41912;51.022;3.664;2023-06-22T02:06:43;19.20;99.90
56044;DHT22;41912;51.022;3.664;2023-06-22T02:09:14;19.20;99.90
56044;DHT22;41912;51.022;3.664;2023-06-22T02:11:43;19.20;99.90
56044;DHT22;41912;51.022;3.664;2023-06-22T02:14:10;19.20;99.90
56044;DHT22;41912;51.022;3.664;2023-06-22T02:16:36;19.20;99.90
56044;DHT22;41912;51.022;3.664;2023-06-22T02:19:03;19.20;99.90
56044;DHT22;41912;51.022;3.664;2023-06-22T02:21:29;19.10;99.90
56044;DHT22;41912;51.022;3.664;2023-06-22T02:23:55;19.10;99.90
56044;DHT22;41912;51.022;3.664;2023-06-22T02:26:21;19.10;99.90
56044;DHT22;41912;51.022;3.664;2023-06-22T02:28:47;19.00;99.90
56044;DHT22;41912;51.022;3.664;2023-06-22T02:31:13;19.10;99.90
56044;DHT22;41912;51.022;3.664;2023-06-22T02:33:38;19.10;99.90
56044;DHT22;41912;51.022;3.664;2023-06-22T02:36:04;19.10;99.90
56044;DHT22;41912;51.022;3.664;2023-06-22T02:38:31;19.10;99.90
56044;DHT22;41912;51.022;3.664;2023-06-22T02:41:00;19.10;99.90
56044;DHT22;41912;51.022;3.664;2023-06-22T02:43:25;19.00;99.90
56044;DHT22;41912;51.022;3.664;2023-06-22T02:45:51;19.00;99.90
56044;DHT22;41912;51.022;3.664;2023-06-22T02:48:17;19.00;99.90
56044;DHT22;41912;51.022;3.664;2023-06-22T02:50:42;19.00;99.90
56044;DHT22;41912;51.022;3.664;2023-06-22T02:53:08;19.00;99.90
56044;DHT22;41912;51.022;3.664;2023-06-22T02:55:33;18.90;99.90
56044;DHT22;41912;51.022;3.664;2023-06-22T02:58:00;18.90;99.90
56044;DHT22;41912;51.022;3.664;2023-06-22T03:00:30;18.90;99.90
56044;DHT22;41912;51.022;3.664;2023-06-22T03:02:56;18.90;99.90
56044;DHT22;41912;51.022;3.664;2023-06-22T03:05:22;18.90;99.90
56044;DHT22;41912;51.022;3.664;2023-06-22T03:07:48;18.90;99.90
56044;DHT22;41912;51.022;3.664;2023-06-22T03:10:15;18.80;99.90
56044;DHT22;41912;51.022;3.664;2023-06-22T03:12:41;18.80;99.90
56044;DHT22;41912;51.022;3.664;2023-06-22T03:15:10;18.80;99.90
56044;DHT22;41912;51.022;3.664;2023-06-22T03:17:36;18.80;99.90
56044;DHT22;41912;51.022;3.664;2023-06-22T03:20:06;18.70;99.90
56044;DHT22;41912;51.022;3.664;2023-06-22T03:22:37;18.70;99.90
56044;DHT22;41912;51.022;3.664;2023-06-22T03:25:03;18.70;99.90
56044;DHT22;41912;51.022;3.664;2023-06-22T03:27:28;18.60;99.90
56044;DHT22;41912;51.022;3.664;2023-06-22T03:29:54;18.60;99.90
56044;DHT22;41912;51.022;3.664;2023-06-22T03:32:19;18.60;99.90
56044;DHT22;41912;51.022;3.664;2023-06-22T03:34:45;18.60;99.90
56044;DHT22;41912;51.022;3.664;2023-06-22T03:37:14;18.60;99.90
56044;DHT22;41912;51.022;3.664;2023-06-22T03:39:41;18.60;99.90
56044;DHT22;41912;51.022;3.664;2023-06-22T03:42:07;18.60;99.90
56044;DHT22;41912;51.022;3.664;2023-06-22T03:44:33;18.50;99.90
56044;DHT22;41912;51.022;3.664;2023-06-22T03:46:58;18.50;99.90
56044;DHT22;41912;51.022;3.664;2023-06-22T03:49:24;18.60;99.90
56044;DHT22;41912;51.022;3.664;2023-06-22T03:51:49;18.50;99.90
56044;DHT22;41912;51.022;3.664;2023-06-22T03:54:15;18.50;99.90
56044;DHT22;41912;51.022;3.664;2023-06-22T03:56:41;18.50;99.90
56044;DHT22;41912;51.022;3.664;2023-06-22T03:59:06;18.50;99.90
56044;DHT22;41912;51.022;3.664;2023-06-22T04:01:32;18.40;99.90
56044;DHT22;41912;51.022;3.664;2023-06-22T04:03:57;18.40;99.90
56044;DHT22;41912;51.022;3.664;2023-06-22T04:06:23;18.50;99.90
56044;DHT22;41912;51.022;3.664;2023-06-22T04:08:49;18.50;99.90
56044;DHT22;41912;51.022;3.664;2023-06-22T04:11:17;18.50;99.90
56044;DHT22;41912;51.022;3.664;2023-06-22T04:13:43;18.60;99.90
56044;DHT22;41912;51.022;3.664;2023-06-22T04:16:09;18.60;99.90
56044;DHT22;41912;51.022;3.664;2023-06-22T04:18:34;18.60;99.90
56044;DHT22;41912;51.022;3.664;2023-06-22T04:21:00;18.60;99.90
56044;DHT22;41912;51.022;3.664;2023-06-22T04:23:25;18.60;99.90
56044;DHT22;41912;51.022;3.664;2023-06-22T04:25:51;18.60;99.90
56044;DHT22;41912;51.022;3.664;2023-06-22T04:28:17;18.60;99.90
56044;DHT22;41912;51.022;3.664;2023-06-22T04:30:42;18.60;99.90
56044;DHT22;41912;51.022;3.664;2023-06-22T04:33:13;18.70;99.90
56044;DHT22;41912;51.022;3.664;2023-06-22T04:35:39;18.70;99.90
56044;DHT22;41912;51.022;3.664;2023-06-22T04:38:06;18.70;99.90
56044;DHT22;41912;51.022;3.664;2023-06-22T04:40:33;18.80;99.90
56044;DHT22;41912;51.022;3.664;2023-06-22T04:42:58;18.70;99.90
56044;DHT22;41912;51.022;3.664;2023-06-22T04:45:28;18.70;99.90
56044;DHT22;41912;51.022;3.664;2023-06-22T04:47:54;18.80;99.90
56044;DHT22;41912;51.022;3.664;2023-06-22T04:50:20;18.80;99.90
56044;DHT22;41912;51.022;3.664;2023-06-22T04:52:47;18.80;99.90
56044;DHT22;41912;51.022;3.664;2023-06-22T04:55:14;18.80;99.90
56044;DHT22;41912;51.022;3.664;2023-06-22T04:57:44;18.90;99.90
56044;DHT22;41912;51.022;3.664;2023-06-22T05:00:15;18.90;99.90
56044;DHT22;41912;51.022;3.664;2023-06-22T05:02:43;18.90;99.90
56044;DHT22;41912;51.022;3.664;2023-06-22T05:05:10;19.00;99.90
56044;DHT22;41912;51.022;3.664;2023-06-22T05:07:40;19.10;99.90
56044;DHT22;41912;51.022;3.664;2023-06-22T05:10:08;19.20;99.90
56044;DHT22;41912;51.022;3.664;2023-06-22T05:12:35;19.20;99.90
56044;DHT22;41912;51.022;3.664;2023-06-22T05:15:01;19.30;99.90
56044;DHT22;41912;51.022;3.664;2023-06-22T05:17:27;19.40;99.90
56044;DHT22;41912;51.022;3.664;2023-06-22T05:19:53;19.40;99.90
56044;DHT22;41912;51.022;3.664;2023-06-22T05:22:19;19.50;99.90
56044;DHT22;41912;51.022;3.664;2023-06-22T05:24:45;19.60;99.90
56044;DHT22;41912;51.022;3.664;2023-06-22T05:27:10;19.70;99.90
56044;DHT22;41912;51.022;3.664;2023-06-22T05:29:37;19.70;99.90
56044;DHT22;41912;51.022;3.664;2023-06-22T05:32:03;19.80;99.90
56044;DHT22;41912;51.022;3.664;2023-06-22T05:34:28;20.00;99.90
56044;DHT22;41912;51.022;3.664;2023-06-22T05:36:54;20.00;99.90
56044;DHT22;41912;51.022;3.664;2023-06-22T05:39:20;20.10;99.90
56044;DHT22;41912;51.022;3.664;2023-06-22T05:41:46;20.20;99.90
56044;DHT22;41912;51.022;3.664;2023-06-22T05:44:12;20.20;99.90
56044;DHT22;41912;51.022;3.664;2023-06-22T05:46:41;20.30;99.90
56044;DHT22;41912;51.022;3.664;2023-06-22T05:49:10;20.30;99.90
56044;DHT22;41912;51.022;3.664;2023-06-22T05:51:36;20.30;99.90
56044;DHT22;41912;51.022;3.664;2023-06-22T05:54:01;20.40;99.90
56044;DHT22;41912;51.022;3.664;2023-06-22T05:56:27;20.40;99.90
56044;DHT22;41912;51.022;3.664;2023-06-22T05:58:52;20.50;99.90
56044;DHT22;41912;51.022;3.664;2023-06-22T06:01:18;20.50;99.90
56044;DHT22;41912;51.022;3.664;2023-06-22T06:03:43;20.50;99.90
56044;DHT22;41912;51.022;3.664;2023-06-22T06:06:09;20.60;99.90
56044;DHT22;41912;51.022;3.664;2023-06-22T06:08:39;20.60;99.90
56044;DHT22;41912;51.022;3.664;2023-06-22T06:11:05;20.60;99.90
56044;DHT22;41912;51.022;3.664;2023-06-22T06:13:30;20.70;99.90
56044;DHT22;41912;51.022;3.664;2023-06-22T06:15:56;20.70;99.90
56044;DHT22;41912;51.022;3.664;2023-06-22T06:18:22;20.80;99.90
56044;DHT22;41912;51.022;3.664;2023-06-22T06:20:48;20.80;99.90
56044;DHT22;41912;51.022;3.664;2023-06-22T06:23:14;20.80;99.90
56044;DHT22;41912;51.022;3.664;2023-06-22T06:25:40;20.90;99.90
56044;DHT22;41912;51.022;3.664;2023-06-22T06:28:06;20.90;99.90
56044;DHT22;41912;51.022;3.664;2023-06-22T06:30:31;21.00;99.90
56044;DHT22;41912;51.022;3.664;2023-06-22T06:32:57;20.90;99.90
56044;DHT22;41912;51.022;3.664;2023-06-22T06:35:23;21.00;99.90
56044;DHT22;41912;51.022;3.664;2023-06-22T06:37:50;21.10;99.90
56044;DHT22;41912;51.022;3.664;2023-06-22T06:40:17;21.10;99.90
56044;DHT22;41912;51.022;3.664;2023-06-22T06:42:47;21.20;99.90
56044;DHT22;41912;51.022;3.664;2023-06-22T06:45:23;21.20;99.90
56044;DHT22;41912;51.022;3.664;2023-06-22T06:47:50;21.20;99.90
56044;DHT22;41912;51.022;3.664;2023-06-22T06:50:17;21.20;99.90
56044;DHT22;41912;51.022;3.664;2023-06-22T06:52:43;21.30;99.90
56044;DHT22;41912;51.022;3.664;2023-06-22T06:55:09;21.30;99.90
56044;DHT22;41912;51.022;3.664;2023-06-22T06:57:39;21.40;99.90
56044;DHT22;41912;51.022;3.664;2023-06-22T07:00:07;21.40;99.90
56044;DHT22;41912;51.022;3.664;2023-06-22T07:02:37;21.50;99.90
56044;DHT22;41912;51.022;3.664;2023-06-22T07:05:03;21.50;99.90
56044;DHT22;41912;51.022;3.664;2023-06-22T07:07:30;21.60;99.90
56044;DHT22;41912;51.022;3.664;2023-06-22T07:09:55;21.70;99.90
56044;DHT22;41912;51.022;3.664;2023-06-22T07:12:21;21.70;99.90
56044;DHT22;41912;51.022;3.664;2023-06-22T07:14:47;21.80;99.90
56044;DHT22;41912;51.022;3.664;2023-06-22T07:17:12;21.80;99.90
56044;DHT22;41912;51.022;3.664;2023-06-22T07:19:38;21.80;99.90
56044;DHT22;41912;51.022;3.664;2023-06-22T07:22:04;21.90;99.90
56044;DHT22;41912;51.022;3.664;2023-06-22T07:24:30;22.00;99.90
56044;DHT22;41912;51.022;3.664;2023-06-22T07:26:55;22.10;99.90
56044;DHT22;41912;51.022;3.664;2023-06-22T07:29:24;22.10;99.90
56044;DHT22;41912;51.022;3.664;2023-06-22T07:31:50;22.10;99.90
56044;DHT22;41912;51.022;3.664;2023-06-22T07:34:22;22.10;99.90
56044;DHT22;41912;51.022;3.664;2023-06-22T07:36:48;22.20;99.90
56044;DHT22;41912;51.022;3.664;2023-06-22T07:39:13;22.20;99.90
56044;DHT22;41912;51.022;3.664;2023-06-22T07:41:40;22.30;99.90
56044;DHT22;41912;51.022;3.664;2023-06-22T07:44:09;22.40;99.90
56044;DHT22;41912;51.022;3.664;2023-06-22T07:46:34;22.40;99.90
56044;DHT22;41912;51.022;3.664;2023-06-22T07:49:00;22.40;99.90
56044;DHT22;41912;51.022;3.664;2023-06-22T07:51:26;22.50;99.90
56044;DHT22;41912;51.022;3.664;2023-06-22T07:53:52;22.50;99.90
56044;DHT22;41912;51.022;3.664;2023-06-22T07:56:18;22.60;99.90
56044;DHT22;41912;51.022;3.664;2023-06-22T07:58:47;22.70;99.90
56044;DHT22;41912;51.022;3.664;2023-06-22T08:01:16;22.70;99.90
56044;DHT22;41912;51.022;3.664;2023-06-22T08:03:42;22.70;99.90
56044;DHT22;41912;51.022;3.664;2023-06-22T08:06:08;22.80;99.90
56044;DHT22;41912;51.022;3.664;2023-06-22T08:08:35;22.80;99.90
56044;DHT22;41912;51.022;3.664;2023-06-22T08:11:00;22.80;99.90
56044;DHT22;41912;51.022;3.664;2023-06-22T08:13:26;22.80;99.90
56044;DHT22;41912;51.022;3.664;2023-06-22T08:15:52;22.90;99.90
56044;DHT22;41912;51.022;3.664;2023-06-22T08:18:17;22.90;99.90
56044;DHT22;41912;51.022;3.664;2023-06-22T08:20:43;22.90;99.90
56044;DHT22;41912;51.022;3.664;2023-06-22T08:23:08;22.90;99.90
56044;DHT22;41912;51.022;3.664;2023-06-22T08:25:34;22.90;99.90
56044;DHT22;41912;51.022;3.664;2023-06-22T08:28:01;22.90;99.90
56044;DHT22;41912;51.022;3.664;2023-06-22T08:30:26;22.90;99.90
56044;DHT22;41912;51.022;3.664;2023-06-22T08:32:52;22.90;99.90
56044;DHT22;41912;51.022;3.664;2023-06-22T08:35:19;23.00;99.90
56044;DHT22;41912;51.022;3.664;2023-06-22T08:37:45;23.00;99.90
56044;DHT22;41912;51.022;3.664;2023-06-22T08:40:15;23.10;99.90
56044;DHT22;41912;51.022;3.664;2023-06-22T08:42:41;23.10;99.90
56044;DHT22;41912;51.022;3.664;2023-06-22T08:45:07;23.10;99.90
56044;DHT22;41912;51.022;3.664;2023-06-22T08:47:33;23.10;99.90
56044;DHT22;41912;51.022;3.664;2023-06-22T08:49:58;23.10;99.90
56044;DHT22;41912;51.022;3.664;2023-06-22T08:52:24;23.10;99.90
56044;DHT22;41912;51.022;3.664;2023-06-22T08:54:50;23.10;99.90
56044;DHT22;41912;51.022;3.664;2023-06-22T08:57:16;23.10;99.90
56044;DHT22;41912;51.022;3.664;2023-06-22T08:59:42;23.10;99.90
56044;DHT22;41912;51.022;3.664;2023-06-22T09:02:08;23.00;99.90
56044;DHT22;41912;51.022;3.664;2023-06-22T09:04:34;23.10;99.90
56044;DHT22;41912;51.022;3.664;2023-06-22T09:07:03;23.10;99.90
56044;DHT22;41912;51.022;3.664;2023-06-22T09:09:29;23.20;99.90
56044;DHT22;41912;51.022;3.664;2023-06-22T09:11:54;23.20;99.90
56044;DHT22;41912;51.022;3.664;2023-06-22T09:14:20;23.20;99.90
56044;DHT22;41912;51.022;3.664;2023-06-22T09:16:46;23.20;99.90
56044;DHT22;41912;51.022;3.664;2023-06-22T09:19:11;23.20;99.90
56044;DHT22;41912;51.022;3.664;2023-06-22T09:21:37;23.20;99.90
56044;DHT22;41912;51.022;3.664;2023-06-22T09:24:03;23.20;99.90
56044;DHT22;41912;51.022;3.664;2023-06-22T09:26:29;23.20;99.90
56044;DHT22;41912;51.022;3.664;2023-06-22T09:28:55;23.20;99.90
56044;DHT22;41912;51.022;3.664;2023-06-22T09:31:21;23.20;99.90
56044;DHT22;41912;51.022;3.664;2023-06-22T09:33:53;23.20;99.90
56044;DHT22;41912;51.022;3.664;2023-06-22T09:36:20;23.20;99.90
56044;DHT22;41912;51.022;3.664;2023-06-22T09:38:45;23.20;99.90
56044;DHT22;41912;51.022;3.664;2023-06-22T09:41:11;23.20;99.90
56044;DHT22;41912;51.022;3.664;2023-06-22T09:43:37;23.20;99.90
56044;DHT22;41912;51.022;3.664;2023-06-22T09:46:02;23.20;99.90
56044;DHT22;41912;51.022;3.664;2023-06-22T09:48:28;23.20;99.90
56044;DHT22;41912;51.022;3.664;2023-06-22T09:50:57;23.20;99.90
56044;DHT22;41912;51.022;3.664;2023-06-22T09:53:23;23.20;99.90
56044;DHT22;41912;51.022;3.664;2023-06-22T09:55:49;23.10;99.90
56044;DHT22;41912;51.022;3.664;2023-06-22T09:58:14;23.20;99.90
56044;DHT22;41912;51.022;3.664;2023-06-22T10:00:40;23.20;99.90
56044;DHT22;41912;51.022;3.664;2023-06-22T10:03:07;23.20;99.90
56044;DHT22;41912;51.022;3.664;2023-06-22T10:05:32;23.10;99.90
56044;DHT22;41912;51.022;3.664;2023-06-22T10:07:58;23.10;99.90
56044;DHT22;41912;51.022;3.664;2023-06-22T10:10:23;23.10;99.90
56044;DHT22;41912;51.022;3.664;2023-06-22T10:12:56;23.00;99.90
56044;DHT22;41912;51.022;3.664;2023-06-22T10:15:22;22.90;99.90
56044;DHT22;41912;51.022;3.664;2023-06-22T10:17:47;22.90;99.90
56044;DHT22;41912;51.022;3.664;2023-06-22T10:20:13;22.90;99.90
56044;DHT22;41912;51.022;3.664;2023-06-22T10:22:40;22.90;99.90
56044;DHT22;41912;51.022;3.664;2023-06-22T10:25:07;22.80;99.90
56044;DHT22;41912;51.022;3.664;2023-06-22T10:27:33;22.80;99.90
56044;DHT22;41912;51.022;3.664;2023-06-22T10:29:59;22.80;99.90
56044;DHT22;41912;51.022;3.664;2023-06-22T10:32:24;22.80;99.90
56044;DHT22;41912;51.022;3.664;2023-06-22T10:34:50;22.80;99.90
56044;DHT22;41912;51.022;3.664;2023-06-22T10:37:16;22.70;99.90
56044;DHT22;41912;51.022;3.664;2023-06-22T10:39:41;22.60;99.90
56044;DHT22;41912;51.022;3.664;2023-06-22T10:42:07;22.60;99.90
56044;DHT22;41912;51.022;3.664;2023-06-22T10:44:33;22.60;99.90
56044;DHT22;41912;51.022;3.664;2023-06-22T10:46:58;22.50;99.90
56044;DHT22;41912;51.022;3.664;2023-06-22T10:49:24;22.50;99.90
56044;DHT22;41912;51.022;3.664;2023-06-22T10:51:49;22.50;99.90
56044;DHT22;41912;51.022;3.664;2023-06-22T10:54:15;22.40;99.90
56044;DHT22;41912;51.022;3.664;2023-06-22T10:56:43;22.40;99.90
56044;DHT22;41912;51.022;3.664;2023-06-22T10:59:09;22.30;99.90
56044;DHT22;41912;51.022;3.664;2023-06-22T11:01:34;22.40;99.90
56044;DHT22;41912;51.022;3.664;2023-06-22T11:04:00;22.40;99.90
56044;DHT22;41912;51.022;3.664;2023-06-22T11:06:26;22.50;99.90
56044;DHT22;41912;51.022;3.664;2023-06-22T11:08:52;22.40;99.90
56044;DHT22;41912;51.022;3.664;2023-06-22T11:11:17;22.40;99.90
56044;DHT22;41912;51.022;3.664;2023-06-22T11:13:43;22.40;99.90
56044;DHT22;41912;51.022;3.664;2023-06-22T11:16:10;22.30;99.90
56044;DHT22;41912;51.022;3.664;2023-06-22T11:18:35;22.30;99.90
56044;DHT22;41912;51.022;3.664;2023-06-22T11:21:01;22.30;99.90
56044;DHT22;41912;51.022;3.664;2023-06-22T11:23:27;22.30;99.90
56044;DHT22;41912;51.022;3.664;2023-06-22T11:25:54;22.30;99.90
56044;DHT22;41912;51.022;3.664;2023-06-22T11:28:19;22.30;99.90
56044;DHT22;41912;51.022;3.664;2023-06-22T11:30:45;22.30;99.90
56044;DHT22;41912;51.022;3.664;2023-06-22T11:33:11;22.20;99.90
56044;DHT22;41912;51.022;3.664;2023-06-22T11:35:37;22.20;99.90
56044;DHT22;41912;51.022;3.664;2023-06-22T11:38:02;22.20;99.90
56044;DHT22;41912;51.022;3.664;2023-06-22T11:40:29;22.20;99.90
56044;DHT22;41912;51.022;3.664;2023-06-22T11:42:55;22.20;99.90
56044;DHT22;41912;51.022;3.664;2023-06-22T11:45:21;22.20;99.90
56044;DHT22;41912;51.022;3.664;2023-06-22T11:47:47;22.20;99.90
56044;DHT22;41912;51.022;3.664;2023-06-22T11:50:12;22.20;99.90
56044;DHT22;41912;51.022;3.664;2023-06-22T11:52:38;22.20;99.90
56044;DHT22;41912;51.022;3.664;2023-06-22T11:55:04;22.20;99.90
56044;DHT22;41912;51.022;3.664;2023-06-22T11:57:36;22.20;99.90
56044;DHT22;41912;51.022;3.664;2023-06-22T12:00:03;22.00;99.90
56044;DHT22;41912;51.022;3.664;2023-06-22T12:02:50;22.20;99.90
56044;DHT22;41912;51.022;3.664;2023-06-22T12:05:17;22.10;99.90
56044;DHT22;41912;51.022;3.664;2023-06-22T12:07:43;22.10;99.90
56044;DHT22;41912;51.022;3.664;2023-06-22T12:10:09;22.10;99.90
56044;DHT22;41912;51.022;3.664;2023-06-22T12:12:35;22.10;99.90
56044;DHT22;41912;51.022;3.664;2023-06-22T12:15:00;22.10;99.90
56044;DHT22;41912;51.022;3.664;2023-06-22T12:17:29;22.10;99.90
56044;DHT22;41912;51.022;3.664;2023-06-22T12:19:55;22.10;99.90
56044;DHT22;41912;51.022;3.664;2023-06-22T12:22:21;22.10;99.90
56044;DHT22;41912;51.022;3.664;2023-06-22T12:24:46;22.10;99.90
56044;DHT22;41912;51.022;3.664;2023-06-22T12:27:12;22.10;99.90
56044;DHT22;41912;51.022;3.664;2023-06-22T12:29:38;22.10;99.90
56044;DHT22;41912;51.022;3.664;2023-06-22T12:32:04;22.20;99.90
56044;DHT22;41912;51.022;3.664;2023-06-22T12:34:29;22.20;99.90
56044;DHT22;41912;51.022;3.664;2023-06-22T12:36:55;22.10;99.90
56044;DHT22;41912;51.022;3.664;2023-06-22T12:39:21;22.20;99.90
56044;DHT22;41912;51.022;3.664;2023-06-22T12:41:46;22.20;99.90
56044;DHT22;41912;51.022;3.664;2023-06-22T12:44:12;22.20;99.90
56044;DHT22;41912;51.022;3.664;2023-06-22T12:46:38;22.20;99.90
56044;DHT22;41912;51.022;3.664;2023-06-22T12:49:06;22.20;99.90
56044;DHT22;41912;51.022;3.664;2023-06-22T12:51:32;22.10;99.90
56044;DHT22;41912;51.022;3.664;2023-06-22T12:53:57;22.20;99.90
56044;DHT22;41912;51.022;3.664;2023-06-22T12:56:23;22.10;99.90
56044;DHT22;41912;51.022;3.664;2023-06-22T12:58:49;22.10;99.90
56044;DHT22;41912;51.022;3.664;2023-06-22T13:01:14;22.10;99.90
56044;DHT22;41912;51.022;3.664;2023-06-22T13:03:41;22.10;99.90
56044;DHT22;41912;51.022;3.664;2023-06-22T13:06:07;22.10;99.90
56044;DHT22;41912;51.022;3.664;2023-06-22T13:08:32;22.10;99.90
56044;DHT22;41912;51.022;3.664;2023-06-22T13:10:58;22.10;99.90
56044;DHT22;41912;51.022;3.664;2023-06-22T13:13:24;22.10;99.90
56044;DHT22;41912;51.022;3.664;2023-06-22T13:15:51;22.10;99.90
56044;DHT22;41912;51.022;3.664;2023-06-22T13:18:18;22.20;99.90
56044;DHT22;41912;51.022;3.664;2023-06-22T13:20:43;22.20;99.90
56044;DHT22;41912;51.022;3.664;2023-06-22T13:23:11;22.30;99.90
56044;DHT22;41912;51.022;3.664;2023-06-22T13:25:36;22.30;99.90
56044;DHT22;41912;51.022;3.664;2023-06-22T13:28:02;22.30;99.90
56044;DHT22;41912;51.022;3.664;2023-06-22T13:30:28;22.30;99.90
56044;DHT22;41912;51.022;3.664;2023-06-22T13:32:53;22.30;99.90
56044;DHT22;41912;51.022;3.664;2023-06-22T13:35:19;22.30;99.90
56044;DHT22;41912;51.022;3.664;2023-06-22T13:37:45;22.30;99.90
56044;DHT22;41912;51.022;3.664;2023-06-22T13:40:10;22.40;99.90
56044;DHT22;41912;51.022;3.664;2023-06-22T13:42:36;22.60;99.90
56044;DHT22;41912;51.022;3.664;2023-06-22T13:45:02;22.70;99.90
56044;DHT22;41912;51.022;3.664;2023-06-22T13:47:29;22.80;99.90
56044;DHT22;41912;51.022;3.664;2023-06-22T13:49:55;22.80;99.90
56044;DHT22;41912;51.022;3.664;2023-06-22T13:52:20;22.90;99.90
56044;DHT22;41912;51.022;3.664;2023-06-22T13:54:46;22.90;99.90
56044;DHT22;41912;51.022;3.664;2023-06-22T13:57:12;22.90;99.90
56044;DHT22;41912;51.022;3.664;2023-06-22T13:59:37;23.00;99.90
56044;DHT22;41912;51.022;3.664;2023-06-22T14:02:03;23.00;99.90
56044;DHT22;41912;51.022;3.664;2023-06-22T14:04:29;23.10;99.90
56044;DHT22;41912;51.022;3.664;2023-06-22T14:06:55;23.20;99.90
56044;DHT22;41912;51.022;3.664;2023-06-22T14:09:21;23.20;99.90
56044;DHT22;41912;51.022;3.664;2023-06-22T14:11:47;23.30;99.90
56044;DHT22;41912;51.022;3.664;2023-06-22T14:14:12;23.30;99.90
56044;DHT22;41912;51.022;3.664;2023-06-22T14:16:38;23.30;99.90
56044;DHT22;41912;51.022;3.664;2023-06-22T14:19:03;23.40;99.90
56044;DHT22;41912;51.022;3.664;2023-06-22T14:21:29;23.40;99.90
56044;DHT22;41912;51.022;3.664;2023-06-22T14:23:55;23.40;99.90
56044;DHT22;41912;51.022;3.664;2023-06-22T14:26:20;23.30;99.90
56044;DHT22;41912;51.022;3.664;2023-06-22T14:28:48;23.30;99.90
56044;DHT22;41912;51.022;3.664;2023-06-22T14:31:16;23.20;99.90
56044;DHT22;41912;51.022;3.664;2023-06-22T14:33:49;23.20;99.90
56044;DHT22;41912;51.022;3.664;2023-06-22T14:36:16;23.30;99.90
56044;DHT22;41912;51.022;3.664;2023-06-22T14:38:43;23.30;99.90
56044;DHT22;41912;51.022;3.664;2023-06-22T14:41:08;23.40;99.90
56044;DHT22;41912;51.022;3.664;2023-06-22T14:43:34;23.40;99.90
56044;DHT22;41912;51.022;3.664;2023-06-22T14:46:00;23.50;99.90
56044;DHT22;41912;51.022;3.664;2023-06-22T14:48:26;23.70;99.90
56044;DHT22;41912;51.022;3.664;2023-06-22T14:50:51;23.70;99.90
56044;DHT22;41912;51.022;3.664;2023-06-22T14:53:19;23.70;99.90
56044;DHT22;41912;51.022;3.664;2023-06-22T14:55:45;23.70;99.90
56044;DHT22;41912;51.022;3.664;2023-06-22T14:58:10;23.70;99.90
56044;DHT22;41912;51.022;3.664;2023-06-22T15:00:37;23.60;99.90
56044;DHT22;41912;51.022;3.664;2023-06-22T15:03:04;23.60;99.90
56044;DHT22;41912;51.022;3.664;2023-06-22T15:05:32;23.60;99.90
56044;DHT22;41912;51.022;3.664;2023-06-22T15:07:57;23.70;99.90
56044;DHT22;41912;51.022;3.664;2023-06-22T15:10:23;23.70;99.90
56044;DHT22;41912;51.022;3.664;2023-06-22T15:12:49;23.70;99.90
56044;DHT22;41912;51.022;3.664;2023-06-22T15:15:15;23.80;99.90
56044;DHT22;41912;51.022;3.664;2023-06-22T15:17:41;23.80;99.90
56044;DHT22;41912;51.022;3.664;2023-06-22T15:20:07;23.70;99.90
56044;DHT22;41912;51.022;3.664;2023-06-22T15:22:33;23.70;99.90
56044;DHT22;41912;51.022;3.664;2023-06-22T15:24:58;23.70;99.90
56044;DHT22;41912;51.022;3.664;2023-06-22T15:27:24;23.70;99.90
56044;DHT22;41912;51.022;3.664;2023-06-22T15:29:50;23.70;99.90